sensor_id;sensor_type;location;lat;lon;timestamp;P1;durP1;ratioP1;P2;durP2;ratioP2
37971;SDS011;23794;48.234;8.344;2023-12-04T00:01:59;6.80;;;3.17;;
37971;SDS011;23794;48.234;8.344;2023-12-04T00:04:26;5.18;;;2.88;;
37971;SDS011;23794;48.234;8.344;2023-12-04T00:06:53;4.78;;;2.53;;
37971;SDS011;23794;48.234;8.344;2023-12-04T00:09:20;4.53;;;2.20;;
37971;SDS011;23794;48.234;8.344;2023-12-04T00:11:47;3.75;;;1.90;;
37971;SDS011;23794;48.234;8.344;2023-12-04T00:14:14;4.65;;;2.03;;
37971;SDS011;23794;48.234;8.344;2023-12-04T00:16:40;4.10;;;2.05;;
37971;SDS011;23794;48.234;8.344;2023-12-04T00:19:07;4.10;;;2.20;;
37971;SDS011;23794;48.234;8.344;2023-12-04T00:21:33;3.25;;;1.88;;
37971;SDS011;23794;48.234;8.344;2023-12-04T00:24:01;3.83;;;1.92;;
37971;SDS011;23794;48.234;8.344;2023-12-04T00:26:27;3.65;;;2.50;;
37971;SDS011;23794;48.234;8.344;2023-12-04T00:28:56;5.50;;;2.53;;
37971;SDS011;23794;48.234;8.344;2023-12-04T00:31:22;4.90;;;2.20;;
37971;SDS011;23794;48.234;8.344;2023-12-04T00:33:50;3.63;;;1.52;;
37971;SDS011;23794;48.234;8.344;2023-12-04T00:36:17;4.15;;;2.20;;
37971;SDS011;23794;48.234;8.344;2023-12-04T00:38:45;4.03;;;2.25;;
37971;SDS011;23794;48.234;8.344;2023-12-04T00:41:12;5.78;;;2.75;;
37971;SDS011;23794;48.234;8.344;2023-12-04T00:43:39;5.50;;;3.05;;
37971;SDS011;23794;48.234;8.344;2023-12-04T00:46:05;4.13;;;2.20;;
37971;SDS011;23794;48.234;8.344;2023-12-04T00:48:32;5.20;;;2.10;;
37971;SDS011;23794;48.234;8.344;2023-12-04T00:50:59;2.63;;;1.50;;
37971;SDS011;23794;48.234;8.344;2023-12-04T00:53:25;3.45;;;2.08;;
37971;SDS011;23794;48.234;8.344;2023-12-04T00:55:52;4.20;;;2.15;;
37971;SDS011;23794;48.234;8.344;2023-12-04T00:58:19;3.63;;;1.98;;
37971;SDS011;23794;48.234;8.344;2023-12-04T01:00:46;3.35;;;1.98;;
37971;SDS011;23794;48.234;8.344;2023-12-04T01:03:15;4.25;;;2.40;;
37971;SDS011;23794;48.234;8.344;2023-12-04T01:05:42;3.17;;;1.90;;
37971;SDS011;23794;48.234;8.344;2023-12-04T01:08:08;5.28;;;2.17;;
37971;SDS011;23794;48.234;8.344;2023-12-04T01:10:35;3.60;;;2.03;;
37971;SDS011;23794;48.234;8.344;2023-12-04T01:13:01;3.90;;;2.22;;
37971;SDS011;23794;48.234;8.344;2023-12-04T01:15:29;3.58;;;1.83;;
37971;SDS011;23794;48.234;8.344;2023-12-04T01:17:56;3.33;;;1.85;;
37971;SDS011;23794;48.234;8.344;2023-12-04T01:20:22;4.53;;;1.90;;
37971;SDS011;23794;48.234;8.344;2023-12-04T01:22:49;4.35;;;1.98;;
37971;SDS011;23794;48.234;8.344;2023-12-04T01:25:16;3.00;;;2.10;;
37971;SDS011;23794;48.234;8.344;2023-12-04T01:27:42;3.42;;;2.00;;
37971;SDS011;23794;48.234;8.344;2023-12-04T01:30:09;4.05;;;1.50;;
37971;SDS011;23794;48.234;8.344;2023-12-04T01:32:36;2.28;;;1.23;;
37971;SDS011;23794;48.234;8.344;2023-12-04T01:35:03;2.75;;;1.52;;
37971;SDS011;23794;48.234;8.344;2023-12-04T01:37:31;2.25;;;1.42;;
37971;SDS011;23794;48.234;8.344;2023-12-04T01:39:58;3.90;;;1.77;;
37971;SDS011;23794;48.234;8.344;2023-12-04T01:42:24;3.75;;;1.65;;
37971;SDS011;23794;48.234;8.344;2023-12-04T01:44:51;2.70;;;1.63;;
37971;SDS011;23794;48.234;8.344;2023-12-04T01:47:18;3.47;;;1.60;;
37971;SDS011;23794;48.234;8.344;2023-12-04T01:49:45;2.83;;;1.40;;
37971;SDS011;23794;48.234;8.344;2023-12-04T01:52:14;2.90;;;1.55;;
37971;SDS011;23794;48.234;8.344;2023-12-04T01:54:41;3.50;;;2.08;;
37971;SDS011;23794;48.234;8.344;2023-12-04T01:57:09;4.05;;;1.55;;
37971;SDS011;23794;48.234;8.344;2023-12-04T01:59:36;3.42;;;1.80;;
37971;SDS011;23794;48.234;8.344;2023-12-04T02:02:03;3.90;;;1.58;;
37971;SDS011;23794;48.234;8.344;2023-12-04T02:04:31;2.25;;;1.40;;
37971;SDS011;23794;48.234;8.344;2023-12-04T02:06:58;2.67;;;1.40;;
37971;SDS011;23794;48.234;8.344;2023-12-04T02:09:25;3.08;;;1.70;;
37971;SDS011;23794;48.234;8.344;2023-12-04T02:11:53;2.33;;;1.35;;
37971;SDS011;23794;48.234;8.344;2023-12-04T02:14:24;4.53;;;2.03;;
37971;SDS011;23794;48.234;8.344;2023-12-04T02:16:51;2.88;;;1.65;;
37971;SDS011;23794;48.234;8.344;2023-12-04T02:19:20;2.03;;;1.10;;
37971;SDS011;23794;48.234;8.344;2023-12-04T02:21:47;3.25;;;1.70;;
37971;SDS011;23794;48.234;8.344;2023-12-04T02:24:14;2.78;;;1.63;;
37971;SDS011;23794;48.234;8.344;2023-12-04T02:26:46;2.63;;;1.70;;
37971;SDS011;23794;48.234;8.344;2023-12-04T02:29:23;3.15;;;1.73;;
37971;SDS011;23794;48.234;8.344;2023-12-04T02:31:56;2.92;;;1.40;;
37971;SDS011;23794;48.234;8.344;2023-12-04T02:34:24;3.72;;;1.88;;
37971;SDS011;23794;48.234;8.344;2023-12-04T02:36:51;2.83;;;1.75;;
37971;SDS011;23794;48.234;8.344;2023-12-04T02:39:19;2.53;;;1.88;;
37971;SDS011;23794;48.234;8.344;2023-12-04T02:41:46;4.43;;;1.52;;
37971;SDS011;23794;48.234;8.344;2023-12-04T02:44:13;2.65;;;1.33;;
37971;SDS011;23794;48.234;8.344;2023-12-04T02:46:42;3.17;;;1.58;;
37971;SDS011;23794;48.234;8.344;2023-12-04T02:49:09;2.55;;;1.30;;
37971;SDS011;23794;48.234;8.344;2023-12-04T02:51:36;2.42;;;1.60;;
37971;SDS011;23794;48.234;8.344;2023-12-04T02:54:02;3.13;;;1.52;;
37971;SDS011;23794;48.234;8.344;2023-12-04T02:56:29;2.92;;;1.50;;
37971;SDS011;23794;48.234;8.344;2023-12-04T02:58:56;4.93;;;1.67;;
37971;SDS011;23794;48.234;8.344;2023-12-04T03:01:22;3.78;;;1.67;;
37971;SDS011;23794;48.234;8.344;2023-12-04T03:03:49;3.10;;;1.42;;
37971;SDS011;23794;48.234;8.344;2023-12-04T03:06:16;5.35;;;1.65;;
37971;SDS011;23794;48.234;8.344;2023-12-04T03:08:43;2.20;;;1.30;;
37971;SDS011;23794;48.234;8.344;2023-12-04T03:11:09;3.80;;;2.25;;
37971;SDS011;23794;48.234;8.344;2023-12-04T03:13:36;3.22;;;1.63;;
37971;SDS011;23794;48.234;8.344;2023-12-04T03:16:02;4.43;;;1.52;;
37971;SDS011;23794;48.234;8.344;2023-12-04T03:18:30;3.35;;;1.65;;
37971;SDS011;23794;48.234;8.344;2023-12-04T03:20:56;3.10;;;1.60;;
37971;SDS011;23794;48.234;8.344;2023-12-04T03:23:23;2.58;;;1.27;;
37971;SDS011;23794;48.234;8.344;2023-12-04T03:25:50;3.60;;;1.60;;
37971;SDS011;23794;48.234;8.344;2023-12-04T03:28:17;2.58;;;1.50;;
37971;SDS011;23794;48.234;8.344;2023-12-04T03:30:43;2.55;;;1.40;;
37971;SDS011;23794;48.234;8.344;2023-12-04T03:33:12;3.10;;;1.70;;
37971;SDS011;23794;48.234;8.344;2023-12-04T03:35:38;2.42;;;1.35;;
37971;SDS011;23794;48.234;8.344;2023-12-04T03:38:05;4.45;;;2.35;;
37971;SDS011;23794;48.234;8.344;2023-12-04T03:40:32;2.72;;;1.40;;
37971;SDS011;23794;48.234;8.344;2023-12-04T03:42:59;5.00;;;1.50;;
37971;SDS011;23794;48.234;8.344;2023-12-04T03:45:26;2.80;;;1.58;;
37971;SDS011;23794;48.234;8.344;2023-12-04T03:47:52;2.10;;;1.33;;
37971;SDS011;23794;48.234;8.344;2023-12-04T03:50:19;3.13;;;1.52;;
37971;SDS011;23794;48.234;8.344;2023-12-04T03:52:46;3.60;;;2.00;;
37971;SDS011;23794;48.234;8.344;2023-12-04T03:55:13;3.25;;;1.85;;
37971;SDS011;23794;48.234;8.344;2023-12-04T03:57:39;3.33;;;1.60;;
37971;SDS011;23794;48.234;8.344;2023-12-04T04:00:06;3.65;;;1.80;;
37971;SDS011;23794;48.234;8.344;2023-12-04T04:02:39;3.13;;;1.80;;
37971;SDS011;23794;48.234;8.344;2023-12-04T04:05:07;3.72;;;2.10;;
37971;SDS011;23794;48.234;8.344;2023-12-04T04:07:33;2.97;;;1.85;;
37971;SDS011;23794;48.234;8.344;2023-12-04T04:10:00;4.38;;;2.00;;
37971;SDS011;23794;48.234;8.344;2023-12-04T04:12:28;4.10;;;2.00;;
37971;SDS011;23794;48.234;8.344;2023-12-04T04:14:54;3.47;;;1.67;;
37971;SDS011;23794;48.234;8.344;2023-12-04T04:17:21;3.28;;;1.88;;
37971;SDS011;23794;48.234;8.344;2023-12-04T04:19:47;3.95;;;1.92;;
37971;SDS011;23794;48.234;8.344;2023-12-04T04:22:14;3.60;;;2.40;;
37971;SDS011;23794;48.234;8.344;2023-12-04T04:24:41;3.92;;;1.77;;
37971;SDS011;23794;48.234;8.344;2023-12-04T04:27:07;4.22;;;2.00;;
37971;SDS011;23794;48.234;8.344;2023-12-04T04:29:34;4.15;;;1.98;;
37971;SDS011;23794;48.234;8.344;2023-12-04T04:32:00;3.45;;;2.08;;
37971;SDS011;23794;48.234;8.344;2023-12-04T04:34:27;3.40;;;1.70;;
37971;SDS011;23794;48.234;8.344;2023-12-04T04:36:54;4.15;;;2.30;;
37971;SDS011;23794;48.234;8.344;2023-12-04T04:39:21;4.20;;;2.10;;
37971;SDS011;23794;48.234;8.344;2023-12-04T04:41:47;4.25;;;2.13;;
37971;SDS011;23794;48.234;8.344;2023-12-04T04:44:14;3.95;;;2.20;;
37971;SDS011;23794;48.234;8.344;2023-12-04T04:46:41;4.22;;;2.00;;
37971;SDS011;23794;48.234;8.344;2023-12-04T04:49:07;3.22;;;1.90;;
37971;SDS011;23794;48.234;8.344;2023-12-04T04:51:34;3.92;;;2.13;;
37971;SDS011;23794;48.234;8.344;2023-12-04T04:54:01;2.90;;;1.70;;
37971;SDS011;23794;48.234;8.344;2023-12-04T04:56:28;4.18;;;2.05;;
37971;SDS011;23794;48.234;8.344;2023-12-04T04:58:56;4.07;;;2.10;;
37971;SDS011;23794;48.234;8.344;2023-12-04T05:01:23;4.75;;;2.42;;
37971;SDS011;23794;48.234;8.344;2023-12-04T05:03:49;3.38;;;1.85;;
37971;SDS011;23794;48.234;8.344;2023-12-04T05:06:16;2.42;;;1.52;;
37971;SDS011;23794;48.234;8.344;2023-12-04T05:08:43;4.25;;;2.35;;
37971;SDS011;23794;48.234;8.344;2023-12-04T05:11:10;3.75;;;2.38;;
37971;SDS011;23794;48.234;8.344;2023-12-04T05:13:36;4.18;;;1.95;;
37971;SDS011;23794;48.234;8.344;2023-12-04T05:16:03;2.95;;;2.00;;
37971;SDS011;23794;48.234;8.344;2023-12-04T05:18:31;5.47;;;2.30;;
37971;SDS011;23794;48.234;8.344;2023-12-04T05:20:58;4.22;;;2.60;;
37971;SDS011;23794;48.234;8.344;2023-12-04T05:23:25;3.47;;;1.63;;
37971;SDS011;23794;48.234;8.344;2023-12-04T05:25:51;2.85;;;1.80;;
37971;SDS011;23794;48.234;8.344;2023-12-04T05:28:18;5.43;;;2.40;;
37971;SDS011;23794;48.234;8.344;2023-12-04T05:30:46;4.20;;;1.80;;
37971;SDS011;23794;48.234;8.344;2023-12-04T05:33:12;4.32;;;2.20;;
37971;SDS011;23794;48.234;8.344;2023-12-04T05:35:39;3.30;;;2.17;;
37971;SDS011;23794;48.234;8.344;2023-12-04T05:38:06;3.63;;;2.13;;
37971;SDS011;23794;48.234;8.344;2023-12-04T05:40:34;4.55;;;2.45;;
37971;SDS011;23794;48.234;8.344;2023-12-04T05:43:01;3.08;;;1.90;;
37971;SDS011;23794;48.234;8.344;2023-12-04T05:45:27;4.45;;;2.30;;
37971;SDS011;23794;48.234;8.344;2023-12-04T05:47:54;4.38;;;2.63;;
37971;SDS011;23794;48.234;8.344;2023-12-04T05:50:21;5.22;;;2.33;;
37971;SDS011;23794;48.234;8.344;2023-12-04T05:52:47;6.10;;;3.10;;
37971;SDS011;23794;48.234;8.344;2023-12-04T05:55:14;5.32;;;2.55;;
37971;SDS011;23794;48.234;8.344;2023-12-04T05:57:40;3.30;;;1.67;;
37971;SDS011;23794;48.234;8.344;2023-12-04T06:00:07;3.10;;;2.10;;
37971;SDS011;23794;48.234;8.344;2023-12-04T06:02:39;4.60;;;2.33;;
37971;SDS011;23794;48.234;8.344;2023-12-04T06:05:06;3.85;;;2.22;;
37971;SDS011;23794;48.234;8.344;2023-12-04T06:07:34;5.30;;;2.40;;
37971;SDS011;23794;48.234;8.344;2023-12-04T06:10:02;5.28;;;2.47;;
37971;SDS011;23794;48.234;8.344;2023-12-04T06:12:31;4.20;;;2.05;;
37971;SDS011;23794;48.234;8.344;2023-12-04T06:14:57;8.32;;;3.28;;
37971;SDS011;23794;48.234;8.344;2023-12-04T06:17:27;5.78;;;3.30;;
37971;SDS011;23794;48.234;8.344;2023-12-04T06:19:53;8.57;;;4.45;;
37971;SDS011;23794;48.234;8.344;2023-12-04T06:22:20;4.97;;;2.53;;
37971;SDS011;23794;48.234;8.344;2023-12-04T06:24:48;4.25;;;2.22;;
37971;SDS011;23794;48.234;8.344;2023-12-04T06:27:16;4.90;;;2.63;;
37971;SDS011;23794;48.234;8.344;2023-12-04T06:29:47;4.10;;;2.58;;
37971;SDS011;23794;48.234;8.344;2023-12-04T06:32:18;6.22;;;3.90;;
37971;SDS011;23794;48.234;8.344;2023-12-04T06:34:45;4.53;;;2.85;;
37971;SDS011;23794;48.234;8.344;2023-12-04T06:37:13;5.15;;;3.08;;
37971;SDS011;23794;48.234;8.344;2023-12-04T06:39:40;7.80;;;4.18;;
37971;SDS011;23794;48.234;8.344;2023-12-04T06:42:08;4.40;;;2.72;;
37971;SDS011;23794;48.234;8.344;2023-12-04T06:44:36;6.00;;;3.70;;
37971;SDS011;23794;48.234;8.344;2023-12-04T06:47:02;7.43;;;4.15;;
37971;SDS011;23794;48.234;8.344;2023-12-04T06:49:31;6.60;;;4.50;;
37971;SDS011;23794;48.234;8.344;2023-12-04T06:51:59;6.82;;;4.00;;
37971;SDS011;23794;48.234;8.344;2023-12-04T06:54:27;5.57;;;3.47;;
37971;SDS011;23794;48.234;8.344;2023-12-04T06:56:53;8.32;;;4.75;;
37971;SDS011;23794;48.234;8.344;2023-12-04T06:59:20;10.95;;;5.50;;
37971;SDS011;23794;48.234;8.344;2023-12-04T07:01:47;11.80;;;6.13;;
37971;SDS011;23794;48.234;8.344;2023-12-04T07:04:15;11.20;;;5.88;;
37971;SDS011;23794;48.234;8.344;2023-12-04T07:06:47;10.55;;;5.30;;
37971;SDS011;23794;48.234;8.344;2023-12-04T07:09:15;8.02;;;4.50;;
37971;SDS011;23794;48.234;8.344;2023-12-04T07:11:43;7.88;;;4.55;;
37971;SDS011;23794;48.234;8.344;2023-12-04T07:14:10;5.72;;;3.72;;
37971;SDS011;23794;48.234;8.344;2023-12-04T07:16:41;5.57;;;3.50;;
37971;SDS011;23794;48.234;8.344;2023-12-04T07:19:09;8.53;;;4.13;;
37971;SDS011;23794;48.234;8.344;2023-12-04T07:21:36;8.63;;;5.03;;
37971;SDS011;23794;48.234;8.344;2023-12-04T07:24:05;10.13;;;5.28;;
37971;SDS011;23794;48.234;8.344;2023-12-04T07:26:33;10.63;;;5.00;;
37971;SDS011;23794;48.234;8.344;2023-12-04T07:29:00;11.40;;;5.50;;
37971;SDS011;23794;48.234;8.344;2023-12-04T07:31:28;10.48;;;5.82;;
37971;SDS011;23794;48.234;8.344;2023-12-04T07:33:54;7.82;;;4.35;;
37971;SDS011;23794;48.234;8.344;2023-12-04T07:36:21;6.80;;;4.63;;
37971;SDS011;23794;48.234;8.344;2023-12-04T07:38:48;7.32;;;3.65;;
37971;SDS011;23794;48.234;8.344;2023-12-04T07:41:15;6.38;;;3.30;;
37971;SDS011;23794;48.234;8.344;2023-12-04T07:43:43;8.10;;;4.60;;
37971;SDS011;23794;48.234;8.344;2023-12-04T07:46:10;8.85;;;4.93;;
37971;SDS011;23794;48.234;8.344;2023-12-04T07:48:37;12.90;;;7.57;;
37971;SDS011;23794;48.234;8.344;2023-12-04T07:51:06;16.73;;;9.43;;
37971;SDS011;23794;48.234;8.344;2023-12-04T07:53:33;13.55;;;7.55;;
37971;SDS011;23794;48.234;8.344;2023-12-04T07:56:00;11.77;;;7.05;;
37971;SDS011;23794;48.234;8.344;2023-12-04T07:58:30;8.63;;;5.25;;
37971;SDS011;23794;48.234;8.344;2023-12-04T08:00:58;10.45;;;5.88;;
37971;SDS011;23794;48.234;8.344;2023-12-04T08:03:25;10.63;;;6.00;;
37971;SDS011;23794;48.234;8.344;2023-12-04T08:05:53;10.70;;;6.03;;
37971;SDS011;23794;48.234;8.344;2023-12-04T08:08:20;10.73;;;6.32;;
37971;SDS011;23794;48.234;8.344;2023-12-04T08:10:47;10.75;;;6.00;;
37971;SDS011;23794;48.234;8.344;2023-12-04T08:13:14;8.00;;;5.50;;
37971;SDS011;23794;48.234;8.344;2023-12-04T08:15:41;13.20;;;6.10;;
37971;SDS011;23794;48.234;8.344;2023-12-04T08:18:07;10.80;;;6.50;;
37971;SDS011;23794;48.234;8.344;2023-12-04T08:20:34;13.10;;;6.70;;
37971;SDS011;23794;48.234;8.344;2023-12-04T08:23:06;11.75;;;5.88;;
37971;SDS011;23794;48.234;8.344;2023-12-04T08:25:33;11.98;;;7.50;;
37971;SDS011;23794;48.234;8.344;2023-12-04T08:28:00;11.48;;;5.90;;
37971;SDS011;23794;48.234;8.344;2023-12-04T08:30:28;11.05;;;6.25;;
37971;SDS011;23794;48.234;8.344;2023-12-04T08:32:55;7.72;;;4.72;;
37971;SDS011;23794;48.234;8.344;2023-12-04T08:35:22;7.32;;;4.72;;
37971;SDS011;23794;48.234;8.344;2023-12-04T08:37:49;7.63;;;4.40;;
37971;SDS011;23794;48.234;8.344;2023-12-04T08:40:16;9.82;;;5.55;;
37971;SDS011;23794;48.234;8.344;2023-12-04T08:42:43;8.90;;;5.55;;
37971;SDS011;23794;48.234;8.344;2023-12-04T08:45:11;14.00;;;8.68;;
37971;SDS011;23794;48.234;8.344;2023-12-04T08:47:38;12.20;;;7.93;;
37971;SDS011;23794;48.234;8.344;2023-12-04T08:50:05;14.77;;;6.03;;
37971;SDS011;23794;48.234;8.344;2023-12-04T08:52:32;8.95;;;5.38;;
37971;SDS011;23794;48.234;8.344;2023-12-04T08:55:00;8.13;;;5.40;;
37971;SDS011;23794;48.234;8.344;2023-12-04T08:57:28;10.40;;;6.97;;
37971;SDS011;23794;48.234;8.344;2023-12-04T08:59:54;10.73;;;6.82;;
37971;SDS011;23794;48.234;8.344;2023-12-04T09:02:21;13.20;;;8.05;;
37971;SDS011;23794;48.234;8.344;2023-12-04T09:04:48;14.35;;;9.57;;
37971;SDS011;23794;48.234;8.344;2023-12-04T09:07:15;17.50;;;10.23;;
37971;SDS011;23794;48.234;8.344;2023-12-04T09:09:44;11.35;;;8.20;;
37971;SDS011;23794;48.234;8.344;2023-12-04T09:12:12;14.38;;;9.00;;
37971;SDS011;23794;48.234;8.344;2023-12-04T09:14:39;13.98;;;9.55;;
37971;SDS011;23794;48.234;8.344;2023-12-04T09:17:06;14.40;;;10.77;;
37971;SDS011;23794;48.234;8.344;2023-12-04T09:19:33;9.13;;;6.88;;
37971;SDS011;23794;48.234;8.344;2023-12-04T09:22:00;11.25;;;7.70;;
37971;SDS011;23794;48.234;8.344;2023-12-04T09:24:38;8.05;;;5.97;;
37971;SDS011;23794;48.234;8.344;2023-12-04T09:27:04;14.13;;;9.13;;
37971;SDS011;23794;48.234;8.344;2023-12-04T09:29:33;21.17;;;10.18;;
37971;SDS011;23794;48.234;8.344;2023-12-04T09:32:00;19.42;;;11.13;;
37971;SDS011;23794;48.234;8.344;2023-12-04T09:34:27;22.88;;;12.90;;
37971;SDS011;23794;48.234;8.344;2023-12-04T09:36:54;37.78;;;18.98;;
37971;SDS011;23794;48.234;8.344;2023-12-04T09:39:27;35.60;;;18.08;;
37971;SDS011;23794;48.234;8.344;2023-12-04T09:41:54;31.60;;;16.50;;
37971;SDS011;23794;48.234;8.344;2023-12-04T09:44:22;34.85;;;19.05;;
37971;SDS011;23794;48.234;8.344;2023-12-04T09:46:50;34.90;;;18.92;;
37971;SDS011;23794;48.234;8.344;2023-12-04T09:49:18;32.60;;;17.38;;
37971;SDS011;23794;48.234;8.344;2023-12-04T09:51:46;25.80;;;15.52;;
37971;SDS011;23794;48.234;8.344;2023-12-04T09:54:15;26.90;;;15.98;;
37971;SDS011;23794;48.234;8.344;2023-12-04T09:56:43;30.90;;;16.40;;
37971;SDS011;23794;48.234;8.344;2023-12-04T09:59:10;26.60;;;14.88;;
37971;SDS011;23794;48.234;8.344;2023-12-04T10:01:40;22.58;;;12.90;;
37971;SDS011;23794;48.234;8.344;2023-12-04T10:04:06;25.98;;;13.52;;
37971;SDS011;23794;48.234;8.344;2023-12-04T10:06:34;24.52;;;12.68;;
37971;SDS011;23794;48.234;8.344;2023-12-04T10:09:03;20.75;;;12.15;;
37971;SDS011;23794;48.234;8.344;2023-12-04T10:11:30;25.75;;;15.32;;
37971;SDS011;23794;48.234;8.344;2023-12-04T10:13:56;21.98;;;13.32;;
37971;SDS011;23794;48.234;8.344;2023-12-04T10:16:36;23.25;;;13.98;;
37971;SDS011;23794;48.234;8.344;2023-12-04T10:19:16;21.02;;;12.85;;
37971;SDS011;23794;48.234;8.344;2023-12-04T10:21:48;20.58;;;12.25;;
37971;SDS011;23794;48.234;8.344;2023-12-04T10:26:56;30.95;;;17.20;;
37971;SDS011;23794;48.234;8.344;2023-12-04T10:29:26;29.83;;;16.13;;
37971;SDS011;23794;48.234;8.344;2023-12-04T10:31:57;31.13;;;17.70;;
37971;SDS011;23794;48.234;8.344;2023-12-04T10:34:26;36.72;;;18.85;;
37971;SDS011;23794;48.234;8.344;2023-12-04T10:36:53;33.95;;;17.90;;
37971;SDS011;23794;48.234;8.344;2023-12-04T10:39:20;31.85;;;16.80;;
37971;SDS011;23794;48.234;8.344;2023-12-04T10:41:48;30.13;;;16.73;;
37971;SDS011;23794;48.234;8.344;2023-12-04T10:44:25;33.92;;;19.13;;
37971;SDS011;23794;48.234;8.344;2023-12-04T10:46:53;28.10;;;16.65;;
37971;SDS011;23794;48.234;8.344;2023-12-04T10:49:21;28.92;;;16.90;;
37971;SDS011;23794;48.234;8.344;2023-12-04T10:51:48;26.05;;;14.98;;
37971;SDS011;23794;48.234;8.344;2023-12-04T10:54:15;27.20;;;15.68;;
37971;SDS011;23794;48.234;8.344;2023-12-04T10:56:41;22.17;;;13.25;;
37971;SDS011;23794;48.234;8.344;2023-12-04T10:59:11;14.13;;;8.32;;
37971;SDS011;23794;48.234;8.344;2023-12-04T11:01:42;19.20;;;11.20;;
37971;SDS011;23794;48.234;8.344;2023-12-04T11:04:13;14.18;;;9.00;;
37971;SDS011;23794;48.234;8.344;2023-12-04T11:06:44;15.82;;;10.15;;
37971;SDS011;23794;48.234;8.344;2023-12-04T11:09:18;17.10;;;10.43;;
37971;SDS011;23794;48.234;8.344;2023-12-04T11:11:51;48.80;;;31.13;;
37971;SDS011;23794;48.234;8.344;2023-12-04T11:14:23;17.35;;;11.43;;
37971;SDS011;23794;48.234;8.344;2023-12-04T11:16:57;17.55;;;10.02;;
37971;SDS011;23794;48.234;8.344;2023-12-04T11:19:35;13.60;;;7.80;;
37971;SDS011;23794;48.234;8.344;2023-12-04T11:22:13;15.15;;;9.05;;
37971;SDS011;23794;48.234;8.344;2023-12-04T11:24:40;13.25;;;8.30;;
37971;SDS011;23794;48.234;8.344;2023-12-04T11:27:07;15.05;;;8.43;;
37971;SDS011;23794;48.234;8.344;2023-12-04T11:29:35;13.15;;;7.90;;
37971;SDS011;23794;48.234;8.344;2023-12-04T11:32:04;20.70;;;11.95;;
37971;SDS011;23794;48.234;8.344;2023-12-04T11:34:34;20.77;;;13.98;;
37971;SDS011;23794;48.234;8.344;2023-12-04T11:37:03;12.35;;;7.93;;
37971;SDS011;23794;48.234;8.344;2023-12-04T11:39:29;11.48;;;8.07;;
37971;SDS011;23794;48.234;8.344;2023-12-04T11:42:00;14.98;;;9.13;;
37971;SDS011;23794;48.234;8.344;2023-12-04T11:44:27;8.10;;;5.35;;
37971;SDS011;23794;48.234;8.344;2023-12-04T11:47:04;14.88;;;9.82;;
37971;SDS011;23794;48.234;8.344;2023-12-04T11:49:32;19.98;;;11.18;;
37971;SDS011;23794;48.234;8.344;2023-12-04T11:52:00;21.88;;;15.02;;
37971;SDS011;23794;48.234;8.344;2023-12-04T11:54:27;13.90;;;9.65;;
37971;SDS011;23794;48.234;8.344;2023-12-04T11:59:38;4.20;;;3.00;;
37971;SDS011;23794;48.234;8.344;2023-12-04T12:02:08;3.13;;;2.17;;
37971;SDS011;23794;48.234;8.344;2023-12-04T12:04:36;14.98;;;8.02;;
37971;SDS011;23794;48.234;8.344;2023-12-04T12:07:07;42.97;;;19.52;;
37971;SDS011;23794;48.234;8.344;2023-12-04T12:09:34;23.35;;;12.98;;
37971;SDS011;23794;48.234;8.344;2023-12-04T12:12:01;45.53;;;27.05;;
37971;SDS011;23794;48.234;8.344;2023-12-04T12:14:29;14.68;;;9.52;;
37971;SDS011;23794;48.234;8.344;2023-12-04T12:16:58;14.32;;;8.50;;
37971;SDS011;23794;48.234;8.344;2023-12-04T12:19:26;22.60;;;10.55;;
37971;SDS011;23794;48.234;8.344;2023-12-04T12:21:53;11.02;;;5.68;;
37971;SDS011;23794;48.234;8.344;2023-12-04T12:24:20;18.25;;;10.80;;
37971;SDS011;23794;48.234;8.344;2023-12-04T12:26:47;14.00;;;7.80;;
37971;SDS011;23794;48.234;8.344;2023-12-04T12:29:14;8.60;;;5.20;;
37971;SDS011;23794;48.234;8.344;2023-12-04T12:31:40;11.52;;;7.65;;
37971;SDS011;23794;48.234;8.344;2023-12-04T12:34:07;12.73;;;8.23;;
37971;SDS011;23794;48.234;8.344;2023-12-04T12:36:34;10.00;;;4.38;;
37971;SDS011;23794;48.234;8.344;2023-12-04T12:39:01;5.35;;;2.83;;
37971;SDS011;23794;48.234;8.344;2023-12-04T12:41:30;2.53;;;1.10;;
37971;SDS011;23794;48.234;8.344;2023-12-04T12:43:57;2.55;;;1.20;;
37971;SDS011;23794;48.234;8.344;2023-12-04T12:46:24;4.07;;;1.98;;
37971;SDS011;23794;48.234;8.344;2023-12-04T12:48:52;2.60;;;1.50;;
37971;SDS011;23794;48.234;8.344;2023-12-04T12:51:19;1.90;;;0.93;;
37971;SDS011;23794;48.234;8.344;2023-12-04T12:53:47;1.95;;;1.00;;
37971;SDS011;23794;48.234;8.344;2023-12-04T12:56:17;2.78;;;1.63;;
37971;SDS011;23794;48.234;8.344;2023-12-04T12:58:45;1.63;;;1.15;;
37971;SDS011;23794;48.234;8.344;2023-12-04T13:01:11;1.70;;;1.00;;
37971;SDS011;23794;48.234;8.344;2023-12-04T13:03:38;4.50;;;2.20;;
37971;SDS011;23794;48.234;8.344;2023-12-04T13:06:05;3.20;;;1.80;;
37971;SDS011;23794;48.234;8.344;2023-12-04T13:08:33;3.28;;;1.65;;
37971;SDS011;23794;48.234;8.344;2023-12-04T13:10:59;3.88;;;2.58;;
37971;SDS011;23794;48.234;8.344;2023-12-04T13:13:26;2.15;;;1.30;;
37971;SDS011;23794;48.234;8.344;2023-12-04T13:15:53;3.13;;;1.27;;
37971;SDS011;23794;48.234;8.344;2023-12-04T13:18:20;2.20;;;1.50;;
37971;SDS011;23794;48.234;8.344;2023-12-04T13:20:47;1.10;;;0.73;;
37971;SDS011;23794;48.234;8.344;2023-12-04T13:23:14;1.60;;;0.88;;
37971;SDS011;23794;48.234;8.344;2023-12-04T13:25:40;1.48;;;1.08;;
37971;SDS011;23794;48.234;8.344;2023-12-04T13:28:07;4.13;;;0.93;;
37971;SDS011;23794;48.234;8.344;2023-12-04T13:30:48;1.60;;;0.80;;
37971;SDS011;23794;48.234;8.344;2023-12-04T13:33:15;2.50;;;0.80;;
37971;SDS011;23794;48.234;8.344;2023-12-04T13:35:42;1.15;;;0.80;;
37971;SDS011;23794;48.234;8.344;2023-12-04T13:38:10;1.73;;;0.98;;
37971;SDS011;23794;48.234;8.344;2023-12-04T13:40:46;3.08;;;1.23;;
37971;SDS011;23794;48.234;8.344;2023-12-04T13:43:26;2.38;;;1.30;;
37971;SDS011;23794;48.234;8.344;2023-12-04T13:46:12;9.95;;;5.18;;
37971;SDS011;23794;48.234;8.344;2023-12-04T13:48:39;2.47;;;1.63;;
37971;SDS011;23794;48.234;8.344;2023-12-04T13:51:09;4.85;;;2.70;;
37971;SDS011;23794;48.234;8.344;2023-12-04T13:53:36;2.90;;;1.65;;
37971;SDS011;23794;48.234;8.344;2023-12-04T13:56:11;4.55;;;0.90;;
37971;SDS011;23794;48.234;8.344;2023-12-04T13:58:47;2.40;;;1.15;;
37971;SDS011;23794;48.234;8.344;2023-12-04T14:01:20;2.90;;;1.50;;
37971;SDS011;23794;48.234;8.344;2023-12-04T14:03:50;1.92;;;1.13;;
37971;SDS011;23794;48.234;8.344;2023-12-04T14:06:19;4.65;;;2.22;;
37971;SDS011;23794;48.234;8.344;2023-12-04T14:08:46;1.70;;;1.27;;
37971;SDS011;23794;48.234;8.344;2023-12-04T14:11:12;2.40;;;1.83;;
37971;SDS011;23794;48.234;8.344;2023-12-04T14:13:41;1.90;;;1.17;;
37971;SDS011;23794;48.234;8.344;2023-12-04T14:16:08;14.75;;;7.55;;
37971;SDS011;23794;48.234;8.344;2023-12-04T14:18:35;7.68;;;5.15;;
37971;SDS011;23794;48.234;8.344;2023-12-04T14:21:02;13.63;;;7.90;;
37971;SDS011;23794;48.234;8.344;2023-12-04T14:23:29;3.20;;;2.33;;
37971;SDS011;23794;48.234;8.344;2023-12-04T14:25:56;3.95;;;1.60;;
37971;SDS011;23794;48.234;8.344;2023-12-04T14:28:23;4.70;;;2.25;;
37971;SDS011;23794;48.234;8.344;2023-12-04T14:30:58;5.43;;;2.45;;
37971;SDS011;23794;48.234;8.344;2023-12-04T14:33:25;8.80;;;4.55;;
37971;SDS011;23794;48.234;8.344;2023-12-04T14:35:51;9.70;;;5.32;;
37971;SDS011;23794;48.234;8.344;2023-12-04T14:38:19;4.25;;;2.47;;
37971;SDS011;23794;48.234;8.344;2023-12-04T14:40:46;2.88;;;1.60;;
37971;SDS011;23794;48.234;8.344;2023-12-04T14:43:12;2.45;;;1.20;;
37971;SDS011;23794;48.234;8.344;2023-12-04T14:45:39;2.33;;;1.30;;
37971;SDS011;23794;48.234;8.344;2023-12-04T14:48:06;4.10;;;2.88;;
37971;SDS011;23794;48.234;8.344;2023-12-04T14:50:34;2.20;;;1.48;;